createdAt,value
2023-05-06T00:05:30.513Z,50.08
2023-05-06T00:13:54.051Z,50.04
2023-05-06T00:22:17.272Z,50.05
2023-05-06T00:30:40.268Z,50.12
2023-05-06T00:39:03.945Z,50.02
2023-05-06T00:47:27.021Z,49.82
2023-05-06T00:55:51.575Z,50.08
2023-05-06T01:04:16.036Z,50.16
2023-05-06T01:13:17.578Z,50.06
2023-05-06T01:21:45.901Z,49.95
2023-05-06T01:30:09.718Z,49.96
2023-05-06T01:39:11.853Z,50.02
2023-05-06T01:47:41.053Z,50.02
2023-05-06T01:56:04.261Z,50.21
2023-05-06T02:04:27.370Z,50.10
2023-05-06T02:12:51.619Z,50.20
2023-05-06T02:21:15.531Z,50.11
2023-05-06T02:29:39.003Z,50.17
2023-05-06T02:38:03.085Z,50.13
2023-05-06T02:46:26.195Z,50.23
2023-05-06T02:54:49.276Z,50.28
2023-05-06T03:03:12.195Z,50.36
2023-05-06T03:11:35.343Z,50.49
2023-05-06T03:20:00.384Z,50.33
2023-05-06T03:28:23.843Z,50.16
2023-05-06T03:36:46.931Z,50.40
2023-05-06T03:45:11.515Z,50.47
2023-05-06T03:53:35.431Z,50.45
2023-05-06T04:02:00.693Z,50.66
2023-05-06T04:10:24.092Z,50.58
2023-05-06T04:18:49.679Z,50.73
2023-05-06T04:27:13.127Z,50.79
2023-05-06T04:35:40.635Z,50.86
2023-05-06T04:44:05.038Z,50.83
2023-05-06T04:52:28.703Z,50.96
2023-05-06T05:00:52.110Z,51.10
2023-05-06T05:09:15.451Z,50.84
2023-05-06T05:17:40.055Z,51.01
2023-05-06T05:26:03.653Z,51.11
2023-05-06T05:34:26.722Z,51.22
2023-05-06T05:42:51.604Z,51.16
2023-05-06T05:51:23.731Z,51.27
2023-05-06T05:59:48.046Z,51.50
2023-05-06T06:08:11.555Z,51.57
2023-05-06T06:16:37.185Z,51.56
2023-05-06T06:25:01.281Z,51.77
2023-05-06T06:33:24.430Z,51.63
2023-05-06T06:41:47.411Z,51.87
2023-05-06T06:50:11.500Z,51.83
2023-05-06T06:58:34.514Z,51.94
2023-05-06T07:06:57.934Z,52.13
2023-05-06T07:15:21.026Z,51.96
2023-05-06T07:23:43.993Z,52.30
2023-05-06T07:32:07.095Z,52.18
2023-05-06T07:40:30.250Z,52.48
2023-05-06T07:48:53.232Z,52.56
2023-05-06T07:57:17.275Z,52.55
2023-05-06T08:05:41.309Z,52.49
2023-05-06T08:14:04.434Z,52.61
2023-05-06T08:22:27.441Z,52.59
2023-05-06T08:30:52.483Z,52.67
2023-05-06T08:39:16.080Z,52.71
2023-05-06T08:47:39.542Z,52.69
2023-05-06T08:56:08.844Z,52.83
2023-05-06T09:04:32.103Z,52.94
2023-05-06T09:12:55.919Z,52.86
2023-05-06T09:21:29.867Z,52.83
2023-05-06T09:30:01.842Z,52.82
2023-05-06T09:38:24.839Z,52.81
2023-05-06T09:46:48.559Z,52.88
2023-05-06T09:55:12.098Z,52.79
2023-05-06T10:03:36.708Z,53.01
2023-05-06T10:12:00.954Z,52.87
2023-05-06T10:20:26.482Z,52.96
2023-05-06T10:28:53.132Z,52.88
2023-05-06T10:37:17.120Z,52.87
2023-05-06T10:46:06.862Z,52.93
2023-05-06T10:54:30.057Z,52.94
2023-05-06T11:02:57.600Z,52.77
2023-05-06T11:11:58.450Z,52.96
2023-05-06T11:20:23.752Z,52.77
2023-05-06T11:28:50.185Z,52.79
2023-05-06T11:37:13.264Z,52.72
2023-05-06T11:45:47.430Z,52.75
2023-05-06T11:54:11.083Z,52.87
2023-05-06T12:02:34.125Z,52.59
2023-05-06T12:11:03.407Z,52.59
2023-05-06T12:19:26.727Z,52.51
2023-05-06T12:27:49.732Z,52.48
2023-05-06T12:36:12.770Z,52.50
2023-05-06T12:44:38.070Z,52.25
2023-05-06T12:53:02.061Z,52.25
2023-05-06T13:01:25.648Z,52.35
2023-05-06T13:09:48.749Z,52.22
2023-05-06T13:18:11.842Z,52.36
2023-05-06T13:26:36.067Z,52.33
2023-05-06T13:34:58.998Z,52.52
2023-05-06T13:43:24.833Z,52.36
2023-05-06T13:51:47.905Z,52.40
2023-05-06T14:00:12.085Z,52.37
2023-05-06T14:08:35.122Z,52.31
2023-05-06T14:16:58.162Z,52.34
2023-05-06T14:25:26.845Z,52.45
2023-05-06T14:33:50.091Z,52.35
2023-05-06T14:42:13.496Z,52.47
2023-05-06T14:50:36.585Z,52.35
2023-05-06T14:59:00.803Z,52.44
2023-05-06T15:07:25.514Z,52.49
2023-05-06T15:15:48.561Z,52.35
2023-05-06T15:24:11.488Z,52.55
2023-05-06T15:32:34.927Z,52.39
2023-05-06T15:40:57.929Z,52.51
2023-05-06T15:57:46.762Z,52.34
2023-05-06T16:06:11.243Z,52.35
2023-05-06T16:14:34.142Z,52.22
2023-05-06T16:22:57.082Z,52.22
2023-05-06T16:31:20.594Z,52.29
2023-05-06T16:39:43.604Z,52.33
2023-05-06T16:48:07.290Z,52.36
2023-05-06T16:56:43.837Z,52.32
2023-05-06T17:05:13.696Z,52.33
2023-05-06T17:13:36.751Z,52.29
2023-05-06T17:21:59.798Z,52.35
2023-05-06T17:30:22.898Z,52.39
2023-05-06T17:38:47.142Z,52.38
2023-05-06T17:47:10.678Z,52.39
2023-05-06T17:55:33.696Z,52.46
2023-05-06T18:03:57.609Z,52.53
2023-05-06T18:12:21.216Z,52.38
2023-05-06T18:20:44.196Z,52.31
2023-05-06T18:29:07.197Z,52.52
2023-05-06T18:37:30.367Z,52.30
2023-05-06T18:45:53.457Z,52.39
2023-05-06T18:54:16.546Z,52.42
2023-05-06T19:02:39.876Z,52.68
2023-05-06T19:11:03.108Z,52.62
2023-05-06T19:19:26.223Z,52.62
2023-05-06T19:27:49.749Z,52.79
2023-05-06T19:36:12.734Z,52.68
2023-05-06T19:44:35.684Z,52.73
2023-05-06T19:52:58.675Z,52.77
2023-05-06T20:01:23.944Z,52.86
2023-05-06T20:09:47.080Z,52.85
2023-05-06T20:18:10.258Z,52.92
2023-05-06T20:26:33.214Z,52.96
2023-05-06T20:34:56.454Z,52.96
2023-05-06T20:43:19.550Z,53.09
2023-05-06T20:51:42.441Z,52.99
2023-05-06T21:00:07.948Z,53.03
2023-05-06T21:08:30.922Z,53.03
2023-05-06T21:16:53.960Z,53.07
2023-05-06T21:25:17.123Z,53.14
2023-05-06T21:33:40.077Z,53.19
2023-05-06T21:42:03.181Z,53.08
2023-05-06T21:50:26.738Z,53.20
2023-05-06T21:58:50.398Z,53.41
2023-05-06T22:07:13.326Z,53.35
2023-05-06T22:15:36.468Z,53.28
2023-05-06T22:23:59.797Z,53.53
2023-05-06T22:32:22.836Z,53.50
2023-05-06T22:40:45.752Z,53.58
2023-05-06T22:49:09.243Z,53.63
2023-05-06T22:57:32.255Z,53.49
2023-05-06T23:05:55.195Z,53.53
2023-05-06T23:14:18.266Z,53.58
2023-05-06T23:22:41.264Z,53.79
2023-05-06T23:31:04.364Z,53.66
2023-05-06T23:39:27.305Z,53.72
2023-05-06T23:47:50.489Z,53.71
2023-05-06T23:56:13.472Z,53.80
